createdAt,value
2022-12-22T00:02:09.996Z,13.97
2022-12-22T00:04:36.593Z,13.96
2022-12-22T00:07:03.334Z,13.95
2022-12-22T00:09:30.322Z,13.96
2022-12-22T00:11:57.213Z,13.95
2022-12-22T00:14:23.593Z,13.94
2022-12-22T00:16:50.162Z,13.94
2022-12-22T00:19:16.642Z,13.94
2022-12-22T00:21:42.972Z,13.94
2022-12-22T00:24:09.364Z,13.94
2022-12-22T00:26:36.068Z,13.93
2022-12-22T00:29:02.684Z,13.93
2022-12-22T00:31:29.407Z,13.92
2022-12-22T00:33:55.826Z,13.92
2022-12-22T00:36:22.459Z,13.92
2022-12-22T00:38:49.055Z,13.91
2022-12-22T00:41:15.581Z,13.91
2022-12-22T00:43:42.587Z,13.90
2022-12-22T00:46:09.012Z,13.91
2022-12-22T00:48:35.798Z,13.89
2022-12-22T00:51:02.502Z,13.89
2022-12-22T00:53:29.466Z,13.89
2022-12-22T00:55:55.859Z,13.89
2022-12-22T00:58:23.024Z,13.89
2022-12-22T01:00:49.765Z,13.87
2022-12-22T01:03:16.254Z,13.89
2022-12-22T01:05:42.761Z,13.88
2022-12-22T01:08:09.384Z,13.88
2022-12-22T01:10:35.814Z,13.87
2022-12-22T01:13:02.864Z,13.87
2022-12-22T01:15:29.808Z,13.86
2022-12-22T01:17:56.279Z,13.84
2022-12-22T01:20:22.990Z,13.84
2022-12-22T01:22:49.348Z,13.85
2022-12-22T01:25:15.869Z,13.84
2022-12-22T01:27:42.789Z,13.83
2022-12-22T01:30:09.216Z,13.83
2022-12-22T01:32:35.544Z,13.84
2022-12-22T01:35:02.081Z,13.82
2022-12-22T01:37:28.416Z,13.83
2022-12-22T01:39:54.814Z,13.83
2022-12-22T01:42:21.356Z,13.83
2022-12-22T01:44:47.806Z,13.82
2022-12-22T01:47:14.231Z,13.81
2022-12-22T01:49:40.598Z,13.81
2022-12-22T01:52:07.057Z,13.80
2022-12-22T01:54:33.440Z,13.80
2022-12-22T01:56:59.822Z,13.80
2022-12-22T01:59:26.441Z,13.79
2022-12-22T02:01:52.925Z,13.79
2022-12-22T02:04:19.724Z,13.78
2022-12-22T02:06:46.244Z,13.78
2022-12-22T02:09:12.939Z,13.79
2022-12-22T02:11:39.691Z,13.78
2022-12-22T02:14:07.423Z,13.78
2022-12-22T02:16:33.948Z,13.78
2022-12-22T02:19:00.587Z,13.75
2022-12-22T02:21:27.036Z,13.76
2022-12-22T02:23:53.455Z,13.76
2022-12-22T02:26:19.986Z,13.77
2022-12-22T02:28:46.309Z,13.76
2022-12-22T02:31:13.819Z,13.77
2022-12-22T02:33:40.465Z,13.75
2022-12-22T02:36:07.279Z,13.75
2022-12-22T02:38:33.932Z,13.76
2022-12-22T02:41:00.243Z,13.75
2022-12-22T02:43:26.785Z,13.74
2022-12-22T02:45:53.145Z,13.74
2022-12-22T02:48:19.626Z,13.75
2022-12-22T02:50:46.296Z,13.72
2022-12-22T02:53:12.688Z,13.72
2022-12-22T02:55:39.117Z,13.72
2022-12-22T02:58:06.022Z,13.72
2022-12-22T03:00:32.708Z,13.71
2022-12-22T03:02:59.535Z,13.71
2022-12-22T03:05:26.411Z,13.71
2022-12-22T03:07:52.801Z,13.70
2022-12-22T03:10:19.223Z,13.71
2022-12-22T03:12:46.032Z,13.71
2022-12-22T03:15:12.983Z,13.70
2022-12-22T03:17:39.752Z,13.70
2022-12-22T03:20:06.395Z,13.70
2022-12-22T03:22:33.469Z,13.68
2022-12-22T03:25:00.347Z,13.69
2022-12-22T03:27:27.346Z,13.68
2022-12-22T03:29:53.634Z,13.68
2022-12-22T03:32:20.191Z,13.68
2022-12-22T03:34:47.101Z,13.68
2022-12-22T03:37:13.592Z,13.69
2022-12-22T03:39:40.250Z,13.68
2022-12-22T03:42:06.650Z,13.68
2022-12-22T03:44:33.295Z,13.67
2022-12-22T03:46:59.795Z,13.66
2022-12-22T03:49:26.230Z,13.66
2022-12-22T03:51:53.282Z,13.65
2022-12-22T03:54:19.569Z,13.65
2022-12-22T03:56:46.273Z,13.64
2022-12-22T03:59:12.876Z,13.65
2022-12-22T04:01:39.444Z,13.64
2022-12-22T04:04:05.938Z,13.63
2022-12-22T04:06:32.782Z,13.63
2022-12-22T04:08:59.432Z,13.62
2022-12-22T04:11:26.182Z,13.63
2022-12-22T04:13:52.499Z,13.62
2022-12-22T04:16:19.624Z,13.62
2022-12-22T04:18:46.177Z,13.62
2022-12-22T04:21:12.829Z,13.61
2022-12-22T04:23:39.394Z,13.60
2022-12-22T04:26:05.818Z,13.61
2022-12-22T04:28:32.377Z,13.61
2022-12-22T04:30:59.225Z,13.60
2022-12-22T04:33:25.656Z,13.59
2022-12-22T04:35:52.058Z,13.60
2022-12-22T04:38:18.724Z,13.59
2022-12-22T04:40:45.109Z,13.60
2022-12-22T04:43:11.789Z,13.58
2022-12-22T04:45:38.316Z,13.59
2022-12-22T04:48:04.867Z,13.57
2022-12-22T04:50:31.537Z,13.58
2022-12-22T04:52:58.161Z,13.58
2022-12-22T04:55:24.810Z,13.58
2022-12-22T04:57:51.210Z,13.56
2022-12-22T05:00:17.972Z,13.56
2022-12-22T05:02:44.831Z,13.56
2022-12-22T05:05:11.318Z,13.55
2022-12-22T05:07:37.857Z,13.57
2022-12-22T05:10:04.184Z,13.57
2022-12-22T05:12:30.853Z,13.55
2022-12-22T05:14:57.537Z,13.55
2022-12-22T05:17:23.916Z,13.55
2022-12-22T05:19:50.249Z,13.55
2022-12-22T05:22:16.777Z,13.56
2022-12-22T05:24:43.118Z,13.55
2022-12-22T05:27:09.660Z,13.54
2022-12-22T05:29:36.255Z,13.53
2022-12-22T05:32:03.280Z,13.53
2022-12-22T05:34:29.634Z,13.52
2022-12-22T05:36:56.055Z,13.52
2022-12-22T05:39:22.750Z,13.53
2022-12-22T05:41:49.133Z,13.52
2022-12-22T05:44:15.503Z,13.52
2022-12-22T05:46:42.025Z,13.51
2022-12-22T05:49:08.482Z,13.52
2022-12-22T05:51:34.894Z,13.52
2022-12-22T05:54:01.710Z,13.50
2022-12-22T05:56:28.108Z,13.50
2022-12-22T05:58:54.783Z,13.49
2022-12-22T06:01:21.762Z,13.50
2022-12-22T06:03:48.431Z,13.49
2022-12-22T06:06:15.269Z,13.50
2022-12-22T06:08:41.701Z,13.50
2022-12-22T06:11:08.173Z,13.50
2022-12-22T06:13:34.492Z,13.49
2022-12-22T06:16:00.901Z,13.48
2022-12-22T06:18:27.701Z,13.49
2022-12-22T06:20:54.410Z,13.47
2022-12-22T06:23:20.881Z,13.47
2022-12-22T06:25:47.270Z,13.48
2022-12-22T06:28:13.859Z,13.47
2022-12-22T06:30:40.276Z,13.47
2022-12-22T06:33:07.285Z,13.46
2022-12-22T06:35:33.635Z,13.46
2022-12-22T06:38:00.487Z,13.46
2022-12-22T06:40:27.425Z,13.46
2022-12-22T06:42:54.614Z,13.45
2022-12-22T06:45:21.417Z,13.45
2022-12-22T06:47:47.813Z,13.44
2022-12-22T06:50:14.406Z,13.46
2022-12-22T06:52:41.206Z,13.44
2022-12-22T06:55:07.517Z,13.44
2022-12-22T06:57:34.261Z,13.44
2022-12-22T07:00:01.063Z,13.43
2022-12-22T07:02:27.662Z,13.43
2022-12-22T07:04:54.650Z,13.43
2022-12-22T07:07:21.453Z,13.42
2022-12-22T07:09:48.069Z,13.43
2022-12-22T07:12:14.697Z,13.40
2022-12-22T07:14:41.121Z,13.40
2022-12-22T07:17:07.504Z,13.41
2022-12-22T07:19:33.875Z,13.40
2022-12-22T07:22:00.793Z,13.40
2022-12-22T07:24:27.142Z,13.40
2022-12-22T07:26:53.532Z,13.40
2022-12-22T07:29:20.774Z,13.41
2022-12-22T07:31:47.531Z,13.40
2022-12-22T07:34:14.023Z,13.37
2022-12-22T07:36:40.483Z,13.36
2022-12-22T07:39:07.223Z,13.38
2022-12-22T07:41:33.899Z,13.37
2022-12-22T07:44:00.221Z,13.36
2022-12-22T07:46:26.610Z,13.37
2022-12-22T07:48:53.519Z,13.37
2022-12-22T07:51:20.061Z,13.36
2022-12-22T07:53:46.495Z,13.35
2022-12-22T07:56:12.940Z,13.35
2022-12-22T07:58:39.489Z,13.35
2022-12-22T08:01:05.850Z,13.35
2022-12-22T08:03:32.663Z,13.35
2022-12-22T08:05:58.997Z,13.35
2022-12-22T08:08:25.436Z,13.34
2022-12-22T08:10:52.195Z,13.35
2022-12-22T08:13:18.630Z,13.34
2022-12-22T08:15:45.396Z,13.35
2022-12-22T08:18:12.145Z,13.34
2022-12-22T08:20:38.695Z,13.33
2022-12-22T08:23:06.404Z,13.33
2022-12-22T08:25:33.444Z,13.34
2022-12-22T08:27:59.828Z,13.33
2022-12-22T08:30:26.925Z,13.33
2022-12-22T08:32:53.364Z,13.33
2022-12-22T08:35:19.828Z,13.32
2022-12-22T08:37:46.574Z,13.33
2022-12-22T08:40:13.039Z,13.34
2022-12-22T08:42:39.700Z,13.33
2022-12-22T08:45:06.419Z,13.32
2022-12-22T08:47:33.011Z,13.32
2022-12-22T08:49:59.370Z,13.32
2022-12-22T08:52:25.945Z,13.31
2022-12-22T08:54:52.716Z,13.31
2022-12-22T08:57:19.106Z,13.31
2022-12-22T08:59:45.869Z,13.31
2022-12-22T09:02:12.568Z,13.32
2022-12-22T09:04:39.027Z,13.31
2022-12-22T09:07:05.406Z,13.30
2022-12-22T09:09:31.977Z,13.29
2022-12-22T09:11:58.854Z,13.30
2022-12-22T09:14:25.809Z,13.30
2022-12-22T09:16:52.953Z,13.30
2022-12-22T09:19:19.490Z,13.30
2022-12-22T09:21:46.478Z,13.30
2022-12-22T09:24:13.096Z,13.31
2022-12-22T09:26:39.992Z,13.34
2022-12-22T09:29:06.354Z,13.34
2022-12-22T09:31:32.861Z,13.32
2022-12-22T09:33:59.824Z,13.31
2022-12-22T09:36:26.227Z,13.31
2022-12-22T09:38:53.235Z,13.28
2022-12-22T09:41:19.593Z,13.29
2022-12-22T09:43:46.339Z,13.29
2022-12-22T09:46:12.683Z,13.28
2022-12-22T09:48:39.080Z,13.27
2022-12-22T09:51:05.409Z,13.26
2022-12-22T09:53:31.782Z,13.27
2022-12-22T09:55:58.411Z,13.27
2022-12-22T09:58:26.723Z,13.27
2022-12-22T10:00:53.421Z,13.27
2022-12-22T10:03:20.190Z,13.27
2022-12-22T10:05:46.623Z,13.27
2022-12-22T10:08:13.398Z,13.26
2022-12-22T10:10:40.196Z,13.27
2022-12-22T10:13:06.642Z,13.26
2022-12-22T10:15:32.988Z,13.25
2022-12-22T10:17:59.493Z,13.25
2022-12-22T10:20:25.786Z,13.26
2022-12-22T10:22:52.176Z,13.26
2022-12-22T10:25:18.883Z,13.25
2022-12-22T10:27:49.890Z,13.26
2022-12-22T10:30:17.988Z,13.25
2022-12-22T10:32:44.498Z,13.26
2022-12-22T10:35:11.028Z,13.24
2022-12-22T10:37:37.562Z,13.24
2022-12-22T10:40:04.823Z,13.24
2022-12-22T10:42:31.293Z,13.24
2022-12-22T10:44:58.076Z,13.24
2022-12-22T10:47:24.784Z,13.24
2022-12-22T10:52:18.394Z,13.26
2022-12-22T10:54:47.081Z,13.25
2022-12-22T10:57:13.617Z,13.25
2022-12-22T10:59:40.058Z,13.26
2022-12-22T11:02:06.911Z,13.25
2022-12-22T11:04:33.709Z,13.25
2022-12-22T11:07:00.120Z,13.25
2022-12-22T11:09:35.266Z,13.25
2022-12-22T11:12:02.501Z,13.26
2022-12-22T11:14:29.100Z,13.26
2022-12-22T11:16:55.572Z,13.25
2022-12-22T11:19:22.083Z,13.24
2022-12-22T11:21:48.422Z,13.26
2022-12-22T11:24:15.176Z,13.25
2022-12-22T11:26:41.542Z,13.25
2022-12-22T11:29:08.134Z,13.24
2022-12-22T11:31:34.585Z,13.24
2022-12-22T11:34:01.089Z,13.25
2022-12-22T11:36:27.517Z,13.24
2022-12-22T11:38:53.989Z,13.25
2022-12-22T11:41:21.162Z,13.23
2022-12-22T11:43:47.901Z,13.25
2022-12-22T11:46:14.331Z,13.23
2022-12-22T11:48:40.765Z,13.24
2022-12-22T11:51:08.431Z,13.23
2022-12-22T11:53:36.194Z,13.23
2022-12-22T11:56:02.668Z,13.23
2022-12-22T11:58:29.469Z,13.23
2022-12-22T12:01:14.915Z,13.22
2022-12-22T12:03:42.540Z,13.23
2022-12-22T12:06:09.016Z,13.23
2022-12-22T12:08:37.978Z,13.23
2022-12-22T12:11:04.790Z,13.22
2022-12-22T12:13:36.769Z,13.22
2022-12-22T12:16:03.483Z,13.22
2022-12-22T12:18:30.205Z,13.23
2022-12-22T12:20:56.791Z,13.22
2022-12-22T12:23:23.363Z,13.22
2022-12-22T12:25:49.665Z,13.22
2022-12-22T12:28:16.275Z,13.22
2022-12-22T12:30:42.572Z,13.20
2022-12-22T12:33:09.816Z,13.21
2022-12-22T12:35:36.412Z,13.21
2022-12-22T12:38:03.259Z,13.21
2022-12-22T12:40:30.000Z,13.20
2022-12-22T12:42:57.474Z,13.20
2022-12-22T12:45:23.794Z,13.21
2022-12-22T12:47:50.478Z,13.20
2022-12-22T12:50:17.117Z,13.20
2022-12-22T12:52:43.743Z,13.21
2022-12-22T12:55:12.153Z,13.19
2022-12-22T12:57:42.230Z,13.20
2022-12-22T13:00:08.727Z,13.19
2022-12-22T13:02:38.074Z,13.20
2022-12-22T13:05:07.737Z,13.19
2022-12-22T13:07:34.573Z,13.19
2022-12-22T13:10:01.273Z,13.19
2022-12-22T13:12:28.133Z,13.19
2022-12-22T13:14:54.705Z,13.17
2022-12-22T13:17:21.477Z,13.19
2022-12-22T13:19:48.914Z,13.17
2022-12-22T13:22:15.724Z,13.18
2022-12-22T13:24:49.157Z,13.18
2022-12-22T13:27:15.794Z,13.18
2022-12-22T13:29:42.351Z,13.18
2022-12-22T13:32:09.577Z,13.17
2022-12-22T13:34:51.022Z,13.18
2022-12-22T13:37:23.092Z,13.18
2022-12-22T13:39:49.640Z,13.17
2022-12-22T13:42:16.168Z,13.16
2022-12-22T13:44:43.100Z,13.17
2022-12-22T13:47:10.291Z,13.18
2022-12-22T13:50:07.008Z,13.16
2022-12-22T13:52:24.205Z,13.16
2022-12-22T13:54:50.878Z,13.17
2022-12-22T13:57:17.758Z,13.16
2022-12-22T13:59:44.182Z,13.16
2022-12-22T14:02:10.858Z,13.16
2022-12-22T14:04:37.684Z,13.16
2022-12-22T14:07:04.674Z,13.16
2022-12-22T14:09:31.490Z,13.16
2022-12-22T14:11:58.151Z,13.16
2022-12-22T14:14:24.982Z,13.16
2022-12-22T14:16:51.645Z,13.16
2022-12-22T14:19:18.112Z,13.16
2022-12-22T14:21:45.026Z,13.15
2022-12-22T14:24:11.700Z,13.15
2022-12-22T14:26:38.216Z,13.15
2022-12-22T14:29:04.815Z,13.15
2022-12-22T14:31:31.141Z,13.15
2022-12-22T14:33:57.536Z,13.15
2022-12-22T14:36:24.365Z,13.16
2022-12-22T14:38:51.149Z,13.15
2022-12-22T14:41:17.579Z,13.15
2022-12-22T14:43:44.175Z,13.15
2022-12-22T14:46:11.120Z,13.15
2022-12-22T14:48:37.567Z,13.15
2022-12-22T14:51:04.278Z,13.16
2022-12-22T14:53:30.766Z,13.15
2022-12-22T14:55:57.113Z,13.14
2022-12-22T14:58:23.459Z,13.15
2022-12-22T15:00:50.047Z,13.15
2022-12-22T15:03:17.240Z,13.14
2022-12-22T15:05:43.783Z,13.14
2022-12-22T15:08:10.625Z,13.15
2022-12-22T15:10:37.082Z,13.15
2022-12-22T15:13:03.750Z,13.15
2022-12-22T15:15:30.591Z,13.14
2022-12-22T15:17:56.998Z,13.13
2022-12-22T15:20:24.071Z,13.14
2022-12-22T15:22:50.516Z,13.14
2022-12-22T15:25:17.344Z,13.15
2022-12-22T15:27:43.764Z,13.13
2022-12-22T15:30:10.130Z,13.14
2022-12-22T15:32:38.184Z,13.14
2022-12-22T15:35:04.688Z,13.15
2022-12-22T15:37:31.473Z,13.14
2022-12-22T15:39:58.379Z,13.12
2022-12-22T15:42:24.982Z,13.12
2022-12-22T15:44:51.701Z,13.13
2022-12-22T15:47:18.088Z,13.12
2022-12-22T15:49:45.163Z,13.13
2022-12-22T15:52:11.953Z,13.13
2022-12-22T15:54:38.321Z,13.13
2022-12-22T15:57:05.158Z,13.13
2022-12-22T15:59:32.035Z,13.13
2022-12-22T16:02:01.896Z,13.12
2022-12-22T16:04:29.073Z,13.13
2022-12-22T16:06:55.634Z,13.12
2022-12-22T16:09:22.016Z,13.12
2022-12-22T16:11:48.399Z,13.12
2022-12-22T16:14:14.794Z,13.12
2022-12-22T16:16:41.434Z,13.12
2022-12-22T16:19:07.824Z,13.12
2022-12-22T16:21:34.293Z,13.12
2022-12-22T16:24:00.609Z,13.11
2022-12-22T16:26:27.418Z,13.12
2022-12-22T16:28:53.792Z,13.11
2022-12-22T16:31:20.216Z,13.11
2022-12-22T16:33:47.115Z,13.11
2022-12-22T16:36:13.879Z,13.11
2022-12-22T16:38:40.264Z,13.10
2022-12-22T16:41:06.679Z,13.11
2022-12-22T16:43:51.606Z,13.11
2022-12-22T16:46:20.676Z,13.08
2022-12-22T16:48:47.473Z,13.12
2022-12-22T16:51:14.118Z,13.10
2022-12-22T16:53:41.059Z,13.10
2022-12-22T16:56:07.585Z,13.10
2022-12-22T16:58:34.002Z,13.11
2022-12-22T17:01:00.813Z,13.11
2022-12-22T17:03:27.239Z,13.10
2022-12-22T17:05:53.822Z,13.10
2022-12-22T17:08:20.441Z,13.10
2022-12-22T17:10:47.335Z,13.10
2022-12-22T17:13:14.005Z,13.09
2022-12-22T17:15:40.440Z,13.10
2022-12-22T17:18:06.821Z,13.10
2022-12-22T17:20:33.185Z,13.12
2022-12-22T17:22:59.594Z,13.11
2022-12-22T17:25:29.010Z,13.12
2022-12-22T17:27:55.958Z,13.09
2022-12-22T17:30:22.741Z,13.13
2022-12-22T17:32:49.069Z,13.12
2022-12-22T17:35:15.968Z,13.10
2022-12-22T17:37:42.313Z,13.09
2022-12-22T17:40:10.884Z,13.10
2022-12-22T17:42:37.875Z,13.10
2022-12-22T17:45:04.759Z,13.12
2022-12-22T17:47:34.915Z,13.11
2022-12-22T17:50:07.619Z,13.10
2022-12-22T17:52:33.974Z,13.10
2022-12-22T17:55:00.418Z,13.11
2022-12-22T17:57:27.490Z,13.09
2022-12-22T17:59:53.887Z,13.08
2022-12-22T18:02:21.140Z,13.09
2022-12-22T18:04:47.963Z,13.08
2022-12-22T18:07:14.280Z,13.08
2022-12-22T18:09:40.694Z,13.07
2022-12-22T18:12:07.440Z,13.09
2022-12-22T18:14:34.211Z,13.08
2022-12-22T18:17:00.654Z,13.08
2022-12-22T18:19:27.110Z,13.09
2022-12-22T18:21:53.625Z,13.06
2022-12-22T18:24:20.117Z,13.06
2022-12-22T18:26:46.575Z,13.08
2022-12-22T18:29:13.781Z,13.07
2022-12-22T18:31:40.359Z,13.07
2022-12-22T18:34:06.871Z,13.07
2022-12-22T18:36:33.923Z,13.08
2022-12-22T18:39:00.351Z,13.07
2022-12-22T18:41:28.733Z,13.07
2022-12-22T18:43:55.413Z,13.07
2022-12-22T18:46:22.200Z,13.08
2022-12-22T18:48:48.619Z,13.09
2022-12-22T18:51:15.039Z,13.08
2022-12-22T18:53:43.507Z,13.05
2022-12-22T18:56:09.930Z,13.03
2022-12-22T18:58:37.204Z,13.00
2022-12-22T19:01:04.260Z,13.00
2022-12-22T19:03:31.604Z,13.07
2022-12-22T19:05:58.454Z,13.05
2022-12-22T19:08:25.700Z,13.03
2022-12-22T19:10:52.111Z,13.06
2022-12-22T19:13:18.718Z,13.04
2022-12-22T19:15:45.136Z,13.07
2022-12-22T19:18:11.454Z,13.17
2022-12-22T19:20:38.304Z,13.30
2022-12-22T19:23:04.704Z,13.46
2022-12-22T19:25:31.098Z,13.62
2022-12-22T19:27:57.803Z,13.79
2022-12-22T19:30:24.645Z,13.95
2022-12-22T19:32:51.422Z,14.02
2022-12-22T19:35:18.347Z,14.13
2022-12-22T19:37:45.633Z,14.27
2022-12-22T19:40:12.605Z,14.35
2022-12-22T19:42:39.053Z,14.47
2022-12-22T19:45:11.525Z,14.56
2022-12-22T19:47:40.776Z,14.63
2022-12-22T19:50:07.337Z,14.73
2022-12-22T19:52:33.771Z,14.80
2022-12-22T19:55:00.817Z,14.87
2022-12-22T19:57:29.003Z,14.94
2022-12-22T19:59:55.669Z,14.99
2022-12-22T20:02:22.403Z,15.06
2022-12-22T20:04:48.822Z,15.12
2022-12-22T20:07:15.187Z,15.18
2022-12-22T20:09:41.497Z,15.24
2022-12-22T20:12:13.013Z,15.30
2022-12-22T20:14:39.420Z,15.36
2022-12-22T20:17:08.528Z,15.42
2022-12-22T20:19:35.364Z,15.45
2022-12-22T20:22:01.898Z,15.50
2022-12-22T20:27:14.013Z,15.58
2022-12-22T20:32:28.333Z,15.65
2022-12-22T20:34:54.919Z,15.67
2022-12-22T20:37:22.591Z,15.71
2022-12-22T20:39:49.400Z,15.77
2022-12-22T20:42:16.033Z,15.81
2022-12-22T20:45:03.114Z,15.79
2022-12-22T20:47:29.413Z,15.77
2022-12-22T20:49:56.261Z,15.77
2022-12-22T20:52:22.807Z,15.76
2022-12-22T20:54:49.119Z,15.77
2022-12-22T20:57:15.617Z,15.78
2022-12-22T20:59:42.445Z,15.80
2022-12-22T21:02:09.594Z,15.81
2022-12-22T21:04:36.141Z,15.83
2022-12-22T21:07:02.724Z,15.85
2022-12-22T21:09:29.126Z,15.91
2022-12-22T21:11:56.325Z,15.92
2022-12-22T21:14:23.156Z,15.91
2022-12-22T21:16:50.899Z,15.93
2022-12-22T21:19:19.016Z,15.97
2022-12-22T21:21:45.781Z,15.97
2022-12-22T21:24:12.655Z,15.96
2022-12-22T21:26:39.678Z,15.98
2022-12-22T21:29:06.624Z,16.01
2022-12-22T21:31:33.439Z,16.05
2022-12-22T21:34:00.390Z,16.08
2022-12-22T21:36:27.140Z,16.12
2022-12-22T21:38:53.777Z,16.13
2022-12-22T21:41:20.612Z,16.18
2022-12-22T21:43:47.774Z,16.22
2022-12-22T21:46:14.451Z,16.25
2022-12-22T21:48:40.831Z,16.28
2022-12-22T21:51:07.533Z,16.33
2022-12-22T21:53:34.787Z,16.36
2022-12-22T21:56:01.929Z,16.37
2022-12-22T21:58:28.785Z,16.41
2022-12-22T22:00:55.235Z,16.45
2022-12-22T22:03:21.702Z,16.49
2022-12-22T22:05:48.451Z,16.53
2022-12-22T22:08:16.877Z,16.56
2022-12-22T22:10:43.378Z,16.59
2022-12-22T22:13:10.797Z,16.64
2022-12-22T22:15:37.462Z,16.67
2022-12-22T22:18:07.201Z,16.71
2022-12-22T22:20:33.964Z,16.74
2022-12-22T22:23:00.891Z,16.76
2022-12-22T22:25:27.296Z,16.80
2022-12-22T22:27:53.797Z,16.84
2022-12-22T22:30:20.400Z,16.88
2022-12-22T22:32:47.580Z,16.91
2022-12-22T22:35:14.651Z,16.94
2022-12-22T22:37:41.568Z,16.98
2022-12-22T22:40:08.714Z,17.01
2022-12-22T22:42:35.351Z,17.05
2022-12-22T22:45:02.242Z,17.09
2022-12-22T22:47:29.307Z,17.05
2022-12-22T22:49:56.329Z,16.99
2022-12-22T22:52:22.868Z,16.94
2022-12-22T22:54:50.014Z,16.89
2022-12-22T22:57:17.000Z,16.85
2022-12-22T22:59:44.318Z,16.81
2022-12-22T23:02:11.234Z,16.78
2022-12-22T23:04:37.825Z,16.77
2022-12-22T23:09:54.719Z,16.70
2022-12-22T23:12:21.053Z,16.69
2022-12-22T23:14:47.617Z,16.67
2022-12-22T23:17:14.198Z,16.65
2022-12-22T23:19:40.530Z,16.63
2022-12-22T23:22:07.183Z,16.60
2022-12-22T23:24:33.900Z,16.57
2022-12-22T23:27:00.366Z,16.55
2022-12-22T23:29:27.488Z,16.51
2022-12-22T23:31:53.973Z,16.47
2022-12-22T23:34:20.447Z,16.46
2022-12-22T23:36:47.294Z,16.44
2022-12-22T23:39:13.819Z,16.39
2022-12-22T23:41:40.202Z,16.36
2022-12-22T23:44:07.161Z,16.33
2022-12-22T23:46:33.612Z,16.30
2022-12-22T23:49:00.244Z,16.27
2022-12-22T23:51:27.133Z,16.25
2022-12-22T23:53:53.423Z,16.21
2022-12-22T23:56:19.902Z,16.17
2022-12-22T23:58:51.013Z,16.14
